X  Fechar Metar - Info de Aeroporto     EDDH Hamburg Helmut Schmidt Airport
Temperatura
17°C Temperatura
7°C Ptº Orvalho
52% Humidade



Vento
11 KM/H
7 MPH
3 M/S
6 NÓS



290°
ONO
Condições Atuais

Nuvens principalmente dispersas Nuvens principalmente dispersas
Pressão 1014.92 (hPa) - 29.97 (inHg)
Visibilidade 6.2 (milha) - 10 (km)
Aeroporto
Código-Aeropoto EDDH

Localização: Hamburg Helmut Schmidt Airport
Distância: 11 (km)

Metar:
EDDH 221320Z AUTO 29006KT 210V320 9999 SCT049 17/07 Q1015

Hora: 22-05-2022 15:20 CEST